Time;durP1;ratioP1;P1;durP2;ratioP2;P2;SDS_P1;SDS_P2;PMS_P1;PMS_P2;Temp;Humidity;BMP_temperature;BMP_pressure;BME280_temperature;BME280_humidity;BME280_pressure;Samples;Min_cycle;Max_cycle;Signal;HPM_P1;HPM_P2
2024/02/03 00:02:19;;;;;;;0.60;0.60;;;9.70;99.90;;;;;;5140878;27;20017;-78
2024/02/03 00:04:44;;;;;;;0.63;0.63;;;9.70;99.90;;;;;;5127301;27;20488;-78
2024/02/03 00:07:10;;;;;;;0.57;0.57;;;9.70;99.90;;;;;;5147200;27;20502;-79
2024/02/03 00:09:36;;;;;;;0.50;0.50;;;9.60;99.90;;;;;;5147328;27;20133;-76
2024/02/03 00:12:01;;;;;;;0.75;0.73;;;9.60;99.90;;;;;;5128145;27;20087;-76
2024/02/03 00:14:27;;;;;;;0.47;0.47;;;9.60;99.90;;;;;;5145278;27;20181;-77
2024/02/03 00:16:56;;;;;;;0.40;0.40;;;9.60;99.90;;;;;;5145873;27;20050;-77
2024/02/03 00:19:22;;;;;;;0.43;0.43;;;9.60;99.90;;;;;;5116495;27;20111;-87
2024/02/03 00:21:49;;;;;;;0.45;0.45;;;9.60;99.90;;;;;;5131692;27;20043;-85
2024/02/03 00:24:15;;;;;;;0.40;0.40;;;9.60;99.90;;;;;;5152589;27;20039;-86
2024/02/03 00:26:41;;;;;;;0.75;0.75;;;9.50;99.90;;;;;;5122103;27;20054;-87
2024/02/03 00:29:11;;;;;;;0.90;0.90;;;9.50;99.90;;;;;;5150888;27;20041;-84
2024/02/03 00:31:39;;;;;;;1.17;1.13;;;9.50;99.90;;;;;;5147235;27;20037;-87
2024/02/03 00:34:05;;;;;;;0.85;0.85;;;9.50;99.90;;;;;;5146014;27;20047;-86
2024/02/03 00:36:31;;;;;;;0.43;0.43;;;9.40;99.90;;;;;;5136671;27;20062;-84
2024/02/03 00:38:58;;;;;;;3.20;2.05;;;9.50;99.90;;;;;;5154798;27;20077;-85
2024/02/03 00:41:24;;;;;;;1.73;1.63;;;9.50;99.90;;;;;;5149277;27;20035;-86
2024/02/03 00:43:50;;;;;;;0.45;0.45;;;9.50;99.90;;;;;;5151127;27;20114;-86
2024/02/03 00:46:16;;;;;;;0.38;0.38;;;9.50;99.90;;;;;;5148616;27;20055;-86
2024/02/03 00:48:41;;;;;;;0.35;0.35;;;9.50;99.90;;;;;;5138734;27;20070;-87
2024/02/03 00:51:13;;;;;;;0.95;0.95;;;9.50;99.90;;;;;;5132852;27;20064;-85
2024/02/03 00:53:41;;;;;;;0.52;0.52;;;9.50;99.90;;;;;;5141709;27;20062;-85
2024/02/03 00:56:08;;;;;;;0.57;0.57;;;9.60;99.90;;;;;;5150094;27;20045;-85
2024/02/03 00:58:33;;;;;;;0.90;0.90;;;9.60;99.90;;;;;;5143049;27;20030;-85
2024/02/03 01:00:59;;;;;;;0.70;0.70;;;9.70;99.90;;;;;;5146523;27;20039;-86
2024/02/03 01:03:25;;;;;;;1.35;0.88;;;9.70;99.90;;;;;;5150614;27;20039;-86
2024/02/03 01:05:52;;;;;;;0.30;0.30;;;9.70;99.90;;;;;;5141558;27;20177;-87
2024/02/03 01:08:18;;;;;;;0.40;0.40;;;9.80;99.90;;;;;;5131938;27;20047;-84
2024/02/03 01:10:44;;;;;;;0.95;0.70;;;9.80;99.90;;;;;;5131602;27;20066;-87
2024/02/03 01:13:10;;;;;;;0.40;0.40;;;9.80;99.90;;;;;;5124139;27;20092;-87
2024/02/03 01:15:36;;;;;;;0.35;0.35;;;9.80;99.90;;;;;;5157969;27;20400;-87
2024/02/03 01:18:04;;;;;;;0.30;0.30;;;9.80;99.90;;;;;;5161447;27;20041;-85
2024/02/03 01:20:32;;;;;;;0.85;0.85;;;9.80;99.90;;;;;;5138605;27;20027;-86
2024/02/03 01:22:58;;;;;;;0.68;0.68;;;9.90;99.90;;;;;;5165286;27;20042;-87
2024/02/03 01:25:24;;;;;;;0.50;0.50;;;9.90;99.90;;;;;;5167063;27;20030;-85
2024/02/03 01:27:49;;;;;;;0.70;0.70;;;9.90;99.90;;;;;;5163989;27;20103;-77
2024/02/03 01:30:18;;;;;;;0.30;0.30;;;9.90;99.90;;;;;;5141976;27;20084;-76
2024/02/03 01:32:44;;;;;;;0.50;0.50;;;9.80;99.90;;;;;;5126420;27;20031;-76
2024/02/03 01:35:10;;;;;;;0.45;0.45;;;9.90;99.90;;;;;;5114503;27;20049;-78
2024/02/03 01:37:37;;;;;;;0.30;0.30;;;9.90;99.90;;;;;;5136556;27;20088;-78
2024/02/03 01:40:04;;;;;;;0.40;0.40;;;9.90;99.90;;;;;;5139417;27;20047;-77
2024/02/03 01:42:29;;;;;;;0.55;0.55;;;9.90;99.90;;;;;;5141986;27;20070;-77
2024/02/03 01:44:55;;;;;;;0.32;0.32;;;9.90;99.90;;;;;;5143179;27;20078;-77
2024/02/03 01:47:21;;;;;;;0.40;0.40;;;10.00;99.90;;;;;;5143516;27;20039;-78
2024/02/03 01:49:50;;;;;;;0.40;0.40;;;10.00;99.90;;;;;;5123344;27;20027;-77
2024/02/03 01:52:17;;;;;;;0.30;0.30;;;10.10;99.90;;;;;;5140933;27;20039;-78
2024/02/03 01:54:43;;;;;;;0.40;0.40;;;10.10;99.90;;;;;;5127144;27;20043;-78
2024/02/03 01:57:10;;;;;;;0.32;0.32;;;10.10;99.90;;;;;;5143724;27;20042;-77
2024/02/03 01:59:36;;;;;;;0.30;0.30;;;10.10;99.90;;;;;;5128596;27;20054;-78
2024/02/03 02:02:02;;;;;;;0.35;0.35;;;10.10;99.90;;;;;;5115618;27;20123;-78
2024/02/03 02:04:31;;;;;;;0.50;0.50;;;10.10;99.90;;;;;;5130774;27;20458;-78
2024/02/03 02:06:58;;;;;;;0.73;0.73;;;10.10;99.90;;;;;;5143263;27;20535;-77
2024/02/03 02:09:26;;;;;;;0.50;0.50;;;10.20;99.90;;;;;;5123604;27;20392;-78
2024/02/03 02:11:54;;;;;;;0.65;0.65;;;10.20;99.90;;;;;;5125285;27;20039;-76
2024/02/03 02:14:22;;;;;;;0.30;0.30;;;10.10;99.90;;;;;;5122932;27;20062;-77
2024/02/03 02:16:48;;;;;;;0.30;0.30;;;10.20;99.90;;;;;;5148297;27;20042;-76
2024/02/03 02:19:16;;;;;;;;;;;10.20;99.90;;;;;;5135968;27;20043;-77
2024/02/03 02:21:42;;;;;;;0.47;0.47;;;10.20;99.90;;;;;;5141383;27;20380;-76
2024/02/03 02:24:09;;;;;;;2.65;1.40;;;10.20;99.90;;;;;;5145678;27;20071;-76
2024/02/03 02:26:34;;;;;;;;;;;11.10;99.90;;;;;;5144540;27;20133;-78
2024/02/03 02:29:03;;;;;;;0.30;0.30;;;10.20;99.90;;;;;;5144041;27;19958;-77
2024/02/03 02:31:29;;;;;;;0.50;0.50;;;10.20;99.90;;;;;;5125047;27;20433;-77
2024/02/03 02:33:56;;;;;;;0.40;0.40;;;10.20;99.90;;;;;;5141456;27;20034;-78
2024/02/03 02:36:21;;;;;;;0.32;0.32;;;10.20;99.90;;;;;;5140395;27;20105;-77
2024/02/03 02:38:47;;;;;;;;;;;10.20;99.90;;;;;;5135115;27;20034;-86
2024/02/03 02:41:19;;;;;;;0.50;0.50;;;10.20;99.90;;;;;;5131364;27;20004;-89
2024/02/03 02:43:45;;;;;;;0.88;0.85;;;10.20;99.90;;;;;;5158885;27;20088;-86
2024/02/03 02:46:11;;;;;;;0.77;0.77;;;10.20;99.90;;;;;;5157647;27;20035;-88
2024/02/03 02:48:36;;;;;;;;;;;10.20;99.90;;;;;;5143087;27;20031;-87
2024/02/03 02:51:02;;;;;;;0.20;0.20;;;10.20;99.90;;;;;;5137745;27;20357;-87
2024/02/03 02:53:28;;;;;;;0.50;0.50;;;10.10;99.90;;;;;;5150100;27;20079;-86
2024/02/03 02:55:54;;;;;;;0.30;0.30;;;10.10;99.90;;;;;;5151063;27;20042;-86
2024/02/03 02:58:20;;;;;;;0.50;0.50;;;10.10;99.90;;;;;;5164136;27;20114;-88
2024/02/03 03:00:47;;;;;;;0.30;0.30;;;10.10;99.90;;;;;;5158632;27;20035;-86
2024/02/03 03:03:15;;;;;;;0.80;0.80;;;10.10;99.90;;;;;;5159020;27;20050;-85
2024/02/03 03:05:41;;;;;;;1.65;1.25;;;10.10;99.90;;;;;;5140484;27;20047;-89
2024/02/03 03:08:07;;;;;;;0.65;0.65;;;10.10;99.90;;;;;;5154091;27;20444;-88
2024/02/03 03:10:32;;;;;;;0.63;0.60;;;10.10;99.90;;;;;;5150578;27;20038;-87
2024/02/03 03:12:58;;;;;;;1.00;0.75;;;10.10;99.90;;;;;;5152561;27;20069;-89
2024/02/03 03:15:27;;;;;;;0.35;0.35;;;10.10;99.90;;;;;;5157399;27;20094;-88
2024/02/03 03:17:53;;;;;;;0.77;0.77;;;10.10;99.90;;;;;;5149128;27;20083;-88
2024/02/03 03:20:18;;;;;;;0.75;0.75;;;10.10;99.90;;;;;;5132444;27;20061;-89
2024/02/03 03:22:44;;;;;;;0.40;0.40;;;10.00;99.90;;;;;;5151323;27;20034;-88
2024/02/03 03:25:12;;;;;;;0.38;0.38;;;9.90;99.90;;;;;;5130664;27;20111;-83
2024/02/03 03:27:38;;;;;;;0.52;0.52;;;9.90;99.90;;;;;;5151908;27;20051;-87
2024/02/03 03:30:05;;;;;;;0.50;0.50;;;9.90;99.90;;;;;;5150744;27;20096;-88
2024/02/03 03:32:32;;;;;;;1.77;1.42;;;9.90;99.90;;;;;;5144130;27;20500;-86
2024/02/03 03:35:05;;;;;;;0.20;0.20;;;9.90;99.90;;;;;;5136661;27;20388;-86
2024/02/03 03:37:31;;;;;;;1.23;0.55;;;9.80;99.90;;;;;;5142306;27;20043;-87
2024/02/03 03:39:56;;;;;;;0.93;0.93;;;9.80;99.90;;;;;;5133348;27;20175;-86
2024/02/03 03:42:22;;;;;;;0.40;0.40;;;9.90;99.90;;;;;;5143568;27;20054;-87
2024/02/03 03:44:48;;;;;;;0.70;0.70;;;9.90;99.90;;;;;;5127913;27;20045;-88
2024/02/03 03:47:14;;;;;;;0.40;0.40;;;10.00;99.90;;;;;;5164122;27;20035;-89
2024/02/03 03:49:40;;;;;;;0.68;0.68;;;9.90;99.90;;;;;;5122693;27;20072;-76
2024/02/03 03:52:06;;;;;;;0.47;0.47;;;9.90;99.90;;;;;;5121709;27;20038;-76
2024/02/03 03:54:31;;;;;;;1.25;1.20;;;9.80;99.90;;;;;;5105428;27;20047;-77
2024/02/03 03:56:57;;;;;;;0.30;0.30;;;9.80;99.90;;;;;;5118655;27;20066;-77
2024/02/03 03:59:25;;;;;;;1.27;1.25;;;9.80;99.90;;;;;;5139568;27;20090;-77
2024/02/03 04:01:53;;;;;;;0.40;0.40;;;9.80;99.90;;;;;;5137849;27;20046;-76
2024/02/03 04:04:19;;;;;;;0.65;0.65;;;9.80;99.90;;;;;;5141484;27;20041;-76
2024/02/03 04:06:46;;;;;;;1.35;1.25;;;9.90;99.90;;;;;;5138202;27;20465;-76
2024/02/03 04:09:22;;;;;;;0.40;0.40;;;9.90;99.90;;;;;;5124045;27;20039;-79
2024/02/03 04:11:49;;;;;;;0.70;0.70;;;10.00;99.90;;;;;;5138661;27;20049;-78
2024/02/03 04:14:14;;;;;;;0.95;0.88;;;9.90;99.90;;;;;;5110612;27;20045;-78
2024/02/03 04:16:41;;;;;;;0.32;0.32;;;9.90;99.90;;;;;;5142743;27;20055;-76
2024/02/03 04:19:06;;;;;;;0.60;0.60;;;9.90;99.90;;;;;;5143130;27;20434;-77
2024/02/03 04:21:33;;;;;;;0.30;0.30;;;9.90;99.90;;;;;;5109831;27;20042;-77
2024/02/03 04:24:05;;;;;;;0.50;0.50;;;9.80;99.90;;;;;;5139595;27;20122;-78
2024/02/03 04:26:31;;;;;;;0.47;0.47;;;9.80;99.90;;;;;;5105023;28;20043;-77
2024/02/03 04:28:57;;;;;;;0.40;0.40;;;9.90;99.90;;;;;;5147832;27;20051;-78
2024/02/03 04:31:39;;;;;;;0.93;0.60;;;9.80;99.90;;;;;;5138708;27;20115;-79
2024/02/03 04:34:05;;;;;;;0.30;0.30;;;9.90;99.90;;;;;;5136140;27;20113;-77
2024/02/03 04:36:31;;;;;;;0.30;0.30;;;9.80;99.90;;;;;;5116472;27;20054;-76
2024/02/03 04:38:57;;;;;;;1.05;0.65;;;9.80;99.90;;;;;;5130591;28;20080;-76
2024/02/03 04:41:23;;;;;;;1.05;1.05;;;9.80;99.90;;;;;;5144229;27;20127;-77
2024/02/03 04:43:49;;;;;;;0.43;0.43;;;9.70;99.90;;;;;;5122910;28;20427;-77
2024/02/03 04:46:15;;;;;;;0.98;0.98;;;9.70;99.90;;;;;;5141417;27;20088;-76
2024/02/03 04:48:42;;;;;;;0.82;0.82;;;9.70;99.90;;;;;;5120689;27;20113;-76
2024/02/03 04:51:08;;;;;;;0.30;0.30;;;9.70;99.90;;;;;;5144361;27;20149;-75
2024/02/03 04:53:34;;;;;;;0.88;0.88;;;9.60;99.90;;;;;;5104743;27;20045;-77
2024/02/03 04:55:59;;;;;;;0.43;0.43;;;9.60;99.90;;;;;;5143638;27;20047;-76
2024/02/03 04:58:25;;;;;;;0.30;0.30;;;9.50;99.90;;;;;;5118460;27;20097;-76
2024/02/03 05:00:51;;;;;;;0.30;0.30;;;9.40;99.90;;;;;;5145811;27;20087;-76
2024/02/03 05:03:17;;;;;;;1.33;1.00;;;9.50;99.90;;;;;;5125978;27;20121;-76
2024/02/03 05:05:48;;;;;;;1.02;0.93;;;9.40;99.90;;;;;;5128415;27;20087;-77
2024/02/03 05:08:14;;;;;;;0.38;0.38;;;9.20;99.90;;;;;;5130639;27;20038;-77
2024/02/03 05:10:42;;;;;;;0.40;0.40;;;9.40;99.90;;;;;;5128790;27;20063;-76
2024/02/03 05:13:14;;;;;;;0.70;0.70;;;9.40;99.90;;;;;;5128693;27;20144;-77
2024/02/03 05:15:40;;;;;;;0.40;0.40;;;9.40;99.90;;;;;;5141789;27;20114;-79
2024/02/03 05:18:17;;;;;;;0.47;0.47;;;9.40;99.90;;;;;;5129540;27;20399;-77
2024/02/03 05:20:43;;;;;;;0.50;0.50;;;9.40;99.90;;;;;;5142134;27;20035;-77
2024/02/03 05:23:08;;;;;;;0.50;0.50;;;9.40;99.90;;;;;;5143620;27;20043;-77
2024/02/03 05:25:34;;;;;;;0.68;0.57;;;9.40;99.90;;;;;;5121614;27;20074;-76
2024/02/03 05:28:00;;;;;;;4.00;1.50;;;9.40;99.90;;;;;;5142336;27;20099;-76
2024/02/03 05:30:27;;;;;;;1.35;1.25;;;9.40;99.90;;;;;;5139642;27;20094;-76
2024/02/03 05:32:53;;;;;;;;;;;9.50;99.90;;;;;;5141284;27;20070;-77
2024/02/03 05:35:19;;;;;;;0.43;0.43;;;9.50;99.90;;;;;;5141721;27;19977;-78
2024/02/03 05:37:48;;;;;;;0.40;0.40;;;9.50;99.90;;;;;;5140623;27;20046;-78
2024/02/03 05:40:15;;;;;;;0.98;0.98;;;9.50;99.90;;;;;;5139610;27;20031;-78
2024/02/03 05:42:43;;;;;;;0.60;0.60;;;9.50;99.90;;;;;;5143908;27;20035;-77
2024/02/03 05:45:11;;;;;;;10.75;0.80;;;9.50;99.90;;;;;;5143640;27;20519;-77
2024/02/03 05:47:37;;;;;;;5.93;0.60;;;9.40;99.90;;;;;;5120654;27;20038;-77
2024/02/03 05:50:08;;;;;;;1.25;1.15;;;9.40;99.90;;;;;;5123417;27;20099;-77
2024/02/03 05:52:36;;;;;;;;;;;9.30;99.90;;;;;;5137742;27;20035;-77
2024/02/03 05:55:02;;;;;;;0.35;0.35;;;9.20;99.90;;;;;;5142676;27;19919;-77
2024/02/03 05:57:28;;;;;;;1.10;1.05;;;9.20;99.90;;;;;;5124560;27;20049;-77
2024/02/03 05:59:54;;;;;;;0.50;0.50;;;9.10;99.90;;;;;;5124184;27;20385;-77
2024/02/03 06:02:21;;;;;;;0.90;0.90;;;9.10;99.90;;;;;;5143655;27;20039;-77
2024/02/03 06:04:47;;;;;;;1.05;1.05;;;9.10;99.90;;;;;;5103574;27;20173;-78
2024/02/03 06:07:14;;;;;;;0.68;0.68;;;9.10;99.90;;;;;;5142452;27;20118;-77
2024/02/03 06:09:43;;;;;;;0.40;0.40;;;9.00;99.90;;;;;;5144562;27;20053;-77
2024/02/03 06:12:14;;;;;;;0.30;0.30;;;9.00;99.90;;;;;;5143425;27;20120;-77
2024/02/03 06:14:46;;;;;;;0.47;0.47;;;9.00;99.90;;;;;;5106447;27;20074;-77
2024/02/03 06:17:13;;;;;;;0.68;0.68;;;9.10;99.90;;;;;;5139223;27;20031;-78
2024/02/03 06:19:38;;;;;;;0.82;0.82;;;9.20;99.90;;;;;;5141992;27;20054;-76
2024/02/03 06:22:04;;;;;;;0.40;0.40;;;9.10;99.90;;;;;;5138747;27;20042;-77
2024/02/03 06:24:31;;;;;;;0.40;0.40;;;9.10;99.90;;;;;;5124358;27;20463;-76
2024/02/03 06:26:57;;;;;;;0.40;0.40;;;9.10;99.90;;;;;;5137810;27;20508;-77
2024/02/03 06:29:23;;;;;;;0.40;0.40;;;9.10;99.90;;;;;;5120450;27;20043;-76
2024/02/03 06:31:48;;;;;;;0.65;0.65;;;9.20;99.90;;;;;;5139730;27;20058;-77
2024/02/03 06:34:18;;;;;;;1.17;0.50;;;9.10;99.90;;;;;;5141997;27;20087;-76
2024/02/03 06:36:44;;;;;;;0.40;0.40;;;9.10;99.90;;;;;;5109237;27;20054;-76
2024/02/03 06:39:10;;;;;;;0.50;0.50;;;9.10;99.90;;;;;;5124291;27;20027;-76
2024/02/03 06:41:35;;;;;;;0.93;0.93;;;9.20;99.90;;;;;;5129335;27;20050;-77
2024/02/03 06:44:02;;;;;;;0.40;0.40;;;9.10;99.90;;;;;;5119635;27;20531;-78
2024/02/03 06:46:28;;;;;;;1.13;0.95;;;9.20;99.90;;;;;;5141734;27;20039;-78
2024/02/03 06:48:54;;;;;;;1.40;1.30;;;9.20;99.90;;;;;;5096917;27;20062;-77
2024/02/03 06:51:22;;;;;;;0.50;0.50;;;9.20;99.90;;;;;;5149385;27;20035;-78
2024/02/03 06:53:47;;;;;;;0.60;0.60;;;9.20;99.90;;;;;;5140582;27;20054;-77
2024/02/03 06:56:13;;;;;;;0.30;0.30;;;9.20;99.90;;;;;;5142010;27;20151;-77
2024/02/03 06:58:40;;;;;;;0.50;0.50;;;9.30;99.90;;;;;;5139313;27;20086;-77
2024/02/03 07:01:06;;;;;;;0.20;0.20;;;9.30;99.90;;;;;;5123910;27;20551;-77
2024/02/03 07:03:33;;;;;;;0.45;0.45;;;9.30;99.90;;;;;;5116938;27;20187;-76
2024/02/03 07:06:03;;;;;;;0.60;0.60;;;9.40;99.90;;;;;;5147118;27;20035;-77
2024/02/03 07:08:29;;;;;;;0.38;0.38;;;9.40;99.90;;;;;;5140041;27;20033;-78
2024/02/03 07:10:56;;;;;;;0.75;0.60;;;9.50;99.90;;;;;;5102740;27;20027;-77
2024/02/03 07:13:22;;;;;;;1.52;0.47;;;9.50;99.90;;;;;;5124887;27;20030;-78
2024/02/03 07:15:53;;;;;;;0.45;0.45;;;9.50;99.90;;;;;;5143327;27;20050;-78
2024/02/03 07:18:23;;;;;;;0.40;0.40;;;9.50;99.90;;;;;;5141841;27;20070;-77
2024/02/03 07:20:50;;;;;;;0.50;0.50;;;9.50;99.90;;;;;;5126002;27;20049;-78
2024/02/03 07:23:15;;;;;;;0.40;0.40;;;9.50;99.90;;;;;;5123106;27;20037;-76
2024/02/03 07:25:41;;;;;;;0.70;0.70;;;9.60;99.90;;;;;;5146929;27;20043;-77
2024/02/03 07:28:16;;;;;;;0.40;0.40;;;9.60;99.90;;;;;;5142487;27;20138;-78
2024/02/03 07:30:48;;;;;;;0.68;0.68;;;9.60;99.90;;;;;;5142290;27;20070;-78
2024/02/03 07:33:14;;;;;;;0.60;0.60;;;9.60;99.90;;;;;;5142902;27;20491;-77
2024/02/03 07:35:41;;;;;;;0.68;0.68;;;9.60;99.90;;;;;;5133738;27;20041;-77
2024/02/03 07:38:08;;;;;;;0.50;0.50;;;9.60;99.90;;;;;;5138287;27;20047;-78
2024/02/03 07:40:35;;;;;;;0.50;0.50;;;9.60;99.90;;;;;;5131211;27;20122;-77
2024/02/03 07:43:00;;;;;;;0.50;0.50;;;9.70;99.90;;;;;;5143557;27;20130;-76
2024/02/03 07:45:28;;;;;;;0.47;0.47;;;9.60;99.90;;;;;;5127087;27;20095;-77
2024/02/03 07:48:06;;;;;;;0.52;0.52;;;9.70;99.90;;;;;;5142279;27;20038;-78
2024/02/03 07:50:32;;;;;;;0.68;0.68;;;9.60;99.90;;;;;;5141047;27;20022;-77
2024/02/03 07:52:58;;;;;;;0.40;0.40;;;9.60;99.90;;;;;;5139370;27;20134;-76
2024/02/03 07:55:23;;;;;;;0.30;0.30;;;9.60;99.90;;;;;;5140180;27;20062;-78
2024/02/03 07:57:49;;;;;;;0.43;0.43;;;9.70;99.90;;;;;;5143940;27;20485;-76
2024/02/03 08:00:16;;;;;;;0.82;0.82;;;9.60;99.90;;;;;;5141684;27;20046;-78
2024/02/03 08:02:42;;;;;;;0.30;0.30;;;9.60;99.90;;;;;;5144621;27;20050;-78
2024/02/03 08:05:07;;;;;;;0.60;0.60;;;9.60;99.90;;;;;;5126665;27;20065;-77
2024/02/03 08:07:36;;;;;;;0.93;0.77;;;9.60;99.90;;;;;;5118671;27;20039;-77
2024/02/03 08:10:03;;;;;;;0.40;0.40;;;9.60;99.90;;;;;;5146051;27;20099;-83
2024/02/03 08:12:35;;;;;;;0.40;0.40;;;9.60;99.90;;;;;;5156937;27;20043;-83
2024/02/03 08:15:00;;;;;;;0.57;0.57;;;9.60;99.90;;;;;;5149111;27;20080;-82
2024/02/03 08:17:27;;;;;;;0.82;0.80;;;9.60;99.90;;;;;;5149589;27;20046;-83
2024/02/03 08:19:55;;;;;;;0.47;0.47;;;9.60;99.90;;;;;;5149693;27;20061;-82
2024/02/03 08:22:21;;;;;;;0.40;0.40;;;9.60;99.90;;;;;;5118685;27;20039;-83
2024/02/03 08:24:47;;;;;;;0.30;0.30;;;9.60;99.90;;;;;;5112617;27;20039;-83
2024/02/03 08:27:12;;;;;;;0.50;0.50;;;9.60;99.90;;;;;;5126795;27;20114;-82
2024/02/03 08:29:39;;;;;;;0.77;0.77;;;9.70;99.90;;;;;;5167974;27;20035;-83
2024/02/03 08:32:06;;;;;;;1.33;1.27;;;9.60;99.90;;;;;;5158212;27;20046;-84
2024/02/03 08:34:33;;;;;;;0.40;0.40;;;9.70;99.90;;;;;;5140287;27;20034;-84
2024/02/03 08:37:04;;;;;;;0.50;0.50;;;9.70;99.90;;;;;;5158762;27;20042;-84
2024/02/03 08:39:30;;;;;;;0.50;0.50;;;9.70;99.90;;;;;;5162351;27;20554;-86
2024/02/03 08:42:08;;;;;;;0.40;0.40;;;9.70;99.90;;;;;;5143684;27;20063;-84
2024/02/03 08:44:33;;;;;;;0.40;0.40;;;9.80;99.90;;;;;;5156518;27;20125;-86
2024/02/03 08:47:01;;;;;;;0.60;0.60;;;9.80;99.90;;;;;;5140213;27;20038;-83
2024/02/03 08:49:30;;;;;;;0.63;0.50;;;9.80;99.90;;;;;;5160501;27;20030;-84
2024/02/03 08:51:56;;;;;;;1.15;1.05;;;9.80;99.90;;;;;;5160961;27;20095;-84
2024/02/03 08:54:22;;;;;;;0.40;0.40;;;9.90;99.90;;;;;;5159304;27;20031;-84
2024/02/03 08:56:47;;;;;;;0.50;0.50;;;9.90;99.90;;;;;;5112782;27;20054;-83
2024/02/03 08:59:14;;;;;;;0.30;0.30;;;8.60;99.90;;;;;;5159381;27;20133;-83
2024/02/03 09:01:40;;;;;;;0.30;0.30;;;9.90;99.90;;;;;;5155231;27;20496;-85
2024/02/03 09:04:07;;;;;;;0.40;0.40;;;9.90;99.90;;;;;;5157451;27;20045;-83
2024/02/03 09:06:36;;;;;;;1.75;0.70;;;10.00;99.90;;;;;;5159012;27;20034;-84
2024/02/03 09:09:05;;;;;;;0.60;0.60;;;10.00;99.90;;;;;;5158646;27;20034;-85
2024/02/03 09:11:32;;;;;;;0.30;0.30;;;10.00;99.90;;;;;;5154264;27;20042;-82
2024/02/03 09:13:58;;;;;;;0.95;0.95;;;10.00;99.90;;;;;;5157060;27;20142;-85
2024/02/03 09:16:25;;;;;;;0.47;0.47;;;10.00;99.90;;;;;;5155690;27;20066;-85
2024/02/03 09:18:51;;;;;;;0.43;0.43;;;10.10;99.90;;;;;;5154011;27;20026;-86
2024/02/03 09:21:17;;;;;;;;;;;10.10;99.90;;;;;;5137656;27;20034;-84
2024/02/03 09:23:43;;;;;;;0.45;0.43;;;10.10;99.90;;;;;;5137471;27;19934;-84
2024/02/03 09:26:08;;;;;;;0.20;0.20;;;10.10;99.90;;;;;;5146556;27;20495;-83
2024/02/03 09:28:35;;;;;;;0.52;0.52;;;10.10;99.90;;;;;;5156922;27;20047;-86
2024/02/03 09:31:01;;;;;;;0.73;0.73;;;10.10;99.90;;;;;;5122013;27;20050;-83
2024/02/03 09:33:27;;;;;;;0.40;0.40;;;10.10;99.90;;;;;;5141494;27;20035;-81
2024/02/03 09:35:52;;;;;;;0.50;0.50;;;10.10;99.90;;;;;;5153080;27;20071;-82
2024/02/03 09:38:18;;;;;;;1.75;1.65;;;10.20;99.90;;;;;;5152801;27;20035;-83
2024/02/03 09:40:44;;;;;;;;;;;10.20;99.90;;;;;;5157396;27;20054;-82
2024/02/03 09:43:11;;;;;;;0.35;0.35;;;10.20;99.90;;;;;;5154797;27;19915;-82
2024/02/03 09:45:37;;;;;;;0.68;0.68;;;10.30;99.90;;;;;;5101399;27;20038;-84
2024/02/03 09:48:03;;;;;;;0.30;0.30;;;10.30;99.90;;;;;;5114688;27;20047;-79
2024/02/03 09:50:29;;;;;;;0.65;0.65;;;10.30;99.90;;;;;;5157452;27;20053;-83
2024/02/03 09:53:01;;;;;;;0.45;0.45;;;10.40;99.90;;;;;;5157258;27;20043;-83
2024/02/03 09:55:27;;;;;;;0.60;0.60;;;10.40;99.90;;;;;;5157105;27;20042;-84
2024/02/03 09:57:54;;;;;;;0.80;0.80;;;10.40;99.90;;;;;;5155432;27;20134;-83
2024/02/03 10:00:24;;;;;;;0.75;0.63;;;10.50;99.90;;;;;;5139048;27;20046;-82
2024/02/03 10:02:51;;;;;;;0.40;0.40;;;10.50;99.90;;;;;;5125525;27;20043;-82
2024/02/03 10:05:31;;;;;;;0.32;0.32;;;10.60;99.90;;;;;;5152315;27;20043;-82
2024/02/03 10:08:05;;;;;;;0.30;0.30;;;10.70;99.90;;;;;;5157894;27;20389;-82
2024/02/03 10:10:35;;;;;;;0.47;0.47;;;10.80;99.90;;;;;;5152886;27;20126;-82
2024/02/03 10:13:12;;;;;;;0.85;0.85;;;10.80;99.90;;;;;;5151057;27;20107;-82
2024/02/03 10:15:39;;;;;;;0.40;0.40;;;10.80;99.90;;;;;;5139926;27;20062;-82
2024/02/03 10:18:08;;;;;;;0.40;0.40;;;10.80;99.90;;;;;;5159119;27;20035;-80
2024/02/03 10:20:34;;;;;;;1.30;1.08;;;10.80;99.90;;;;;;5155445;27;20425;-82
2024/02/03 10:23:10;;;;;;;0.40;0.40;;;10.80;99.90;;;;;;5142457;27;20053;-81
2024/02/03 10:25:36;;;;;;;0.70;0.70;;;10.80;99.90;;;;;;5149130;27;20047;-82
2024/02/03 10:28:03;;;;;;;0.30;0.30;;;10.80;99.90;;;;;;5140453;27;20066;-81
2024/02/03 10:30:31;;;;;;;0.52;0.52;;;10.80;99.90;;;;;;5140033;27;20031;-83
2024/02/03 10:32:59;;;;;;;0.40;0.40;;;10.90;99.90;;;;;;5155864;27;20047;-82
2024/02/03 10:35:33;;;;;;;0.50;0.50;;;10.90;99.90;;;;;;5131897;27;20570;-82
2024/02/03 10:38:15;;;;;;;0.30;0.30;;;11.10;99.90;;;;;;5156271;27;20049;-81
2024/02/03 10:40:41;;;;;;;0.40;0.40;;;11.20;99.90;;;;;;5156590;27;20035;-82
2024/02/03 10:43:21;;;;;;;0.90;0.50;;;11.40;99.90;;;;;;5156701;27;20046;-82
2024/02/03 10:45:55;;;;;;;0.35;0.35;;;11.60;99.90;;;;;;5137806;27;20043;-82
2024/02/03 10:48:39;;;;;;;0.40;0.40;;;11.70;99.90;;;;;;5139673;27;20091;-82
2024/02/03 10:51:19;;;;;;;0.70;0.55;;;11.70;99.90;;;;;;5155973;27;20069;-84
2024/02/03 10:53:59;;;;;;;0.70;0.70;;;11.70;99.90;;;;;;5140474;27;20050;-83
2024/02/03 10:56:35;;;;;;;4.13;1.50;;;11.60;99.90;;;;;;5143783;27;20046;-84
2024/02/03 10:59:07;;;;;;;0.75;0.75;;;11.60;99.90;;;;;;5136524;27;20043;-84
2024/02/03 11:01:36;;;;;;;1.55;0.73;;;11.60;99.90;;;;;;5151981;27;20384;-85
2024/02/03 11:04:02;;;;;;;0.50;0.50;;;11.90;99.90;;;;;;5156102;27;20053;-85
2024/02/03 11:06:28;;;;;;;;;;;11.60;99.90;;;;;;5162771;27;20072;-85
2024/02/03 11:09:18;;;;;;;0.60;0.60;;;11.60;99.90;;;;;;5154736;27;19923;-83
2024/02/03 11:11:48;;;;;;;0.75;0.75;;;11.60;99.90;;;;;;5150915;27;20061;-85
2024/02/03 11:14:15;;;;;;;0.77;0.77;;;11.60;99.90;;;;;;5153769;27;20414;-85
2024/02/03 11:17:04;;;;;;;0.30;0.30;;;11.70;99.90;;;;;;5154033;27;20046;-85
2024/02/03 11:19:35;;;;;;;24.55;1.73;;;11.70;99.90;;;;;;5155358;27;20043;-85
2024/02/03 11:22:04;;;;;;;0.45;0.45;;;11.80;99.90;;;;;;5133242;27;20148;-85
2024/02/03 11:24:30;;;;;;;0.20;0.20;;;11.90;99.90;;;;;;5156595;27;20042;-86
2024/02/03 11:27:03;;;;;;;0.60;0.60;;;12.00;99.90;;;;;;5158425;27;20055;-85
2024/02/03 11:29:31;;;;;;;0.30;0.30;;;12.10;99.90;;;;;;5157098;27;20034;-85
2024/02/03 11:32:10;;;;;;;0.30;0.30;;;12.40;99.90;;;;;;5154003;27;20395;-84
2024/02/03 11:34:37;;;;;;;0.40;0.40;;;12.50;99.90;;;;;;5155751;27;20035;-85
2024/02/03 11:37:05;;;;;;;0.38;0.38;;;12.70;99.90;;;;;;5154493;27;20046;-85
2024/02/03 11:39:34;;;;;;;0.32;0.32;;;12.70;99.90;;;;;;5156622;27;20084;-85
2024/02/03 11:42:05;;;;;;;0.30;0.30;;;12.70;99.90;;;;;;5160508;27;20046;-87
2024/02/03 11:44:47;;;;;;;0.30;0.30;;;12.70;99.90;;;;;;5155234;27;20042;-87
2024/02/03 11:47:18;;;;;;;0.30;0.30;;;12.70;99.90;;;;;;5155688;27;20488;-85
2024/02/03 11:49:49;;;;;;;0.60;0.60;;;12.60;99.90;;;;;;5121555;27;20045;-84
2024/02/03 11:52:24;;;;;;;0.40;0.40;;;12.50;99.90;;;;;;5156351;27;20066;-86
2024/02/03 11:54:51;;;;;;;0.40;0.40;;;12.40;99.90;;;;;;5145544;27;20054;-84
2024/02/03 11:57:17;;;;;;;1.65;1.05;;;12.40;99.90;;;;;;5159478;27;20039;-85
2024/02/03 11:59:43;;;;;;;0.35;0.35;;;12.30;99.90;;;;;;5155083;27;20050;-85
2024/02/03 12:02:12;;;;;;;0.40;0.40;;;12.20;99.90;;;;;;5159121;27;20034;-83
2024/02/03 12:04:37;;;;;;;0.40;0.40;;;12.10;99.90;;;;;;5148837;27;20039;-81
2024/02/03 12:07:03;;;;;;;0.30;0.30;;;12.00;99.90;;;;;;5145820;27;20484;-82
2024/02/03 12:09:29;;;;;;;0.32;0.32;;;12.10;99.90;;;;;;5153769;27;20046;-82
2024/02/03 12:11:58;;;;;;;0.47;0.47;;;12.10;99.90;;;;;;5152084;27;20038;-82
2024/02/03 12:14:24;;;;;;;0.70;0.70;;;12.10;99.90;;;;;;5133761;27;20031;-83
2024/02/03 12:16:50;;;;;;;;;;;12.20;99.90;;;;;;5152898;27;20100;-81
2024/02/03 12:19:16;;;;;;;0.47;0.47;;;12.10;99.90;;;;;;5138899;27;19915;-82
2024/02/03 12:21:46;;;;;;;0.35;0.35;;;12.10;99.90;;;;;;5157442;27;20424;-82
2024/02/03 12:24:13;;;;;;;0.40;0.40;;;12.10;99.90;;;;;;5144609;27;20043;-81
2024/02/03 12:26:42;;;;;;;0.98;0.98;;;12.10;99.90;;;;;;5144412;27;20074;-82
2024/02/03 12:29:08;;;;;;;1.50;1.40;;;12.00;99.90;;;;;;5147395;27;20053;-79
2024/02/03 12:31:36;;;;;;;0.50;0.50;;;11.90;99.90;;;;;;5153308;27;20034;-83
2024/02/03 12:34:03;;;;;;;1.73;1.30;;;11.80;99.90;;;;;;5147856;27;20080;-81
2024/02/03 12:36:30;;;;;;;0.30;0.30;;;11.80;99.90;;;;;;5152575;27;20104;-82
2024/02/03 12:38:57;;;;;;;0.47;0.47;;;11.70;99.90;;;;;;5141253;27;20049;-80
2024/02/03 12:41:23;;;;;;;0.73;0.73;;;11.70;99.90;;;;;;5151035;27;20519;-82
2024/02/03 12:43:53;;;;;;;1.08;1.08;;;11.60;99.90;;;;;;5150135;27;20043;-83
2024/02/03 12:46:20;;;;;;;0.40;0.40;;;11.60;99.90;;;;;;5145701;27;20031;-81
2024/02/03 12:48:51;;;;;;;1.08;1.08;;;11.60;99.90;;;;;;5130896;27;20046;-82
2024/02/03 12:51:19;;;;;;;0.98;0.52;;;11.60;99.90;;;;;;5148737;27;20043;-82
2024/02/03 12:53:48;;;;;;;0.73;0.70;;;11.60;99.90;;;;;;5129122;28;20055;-82
2024/02/03 12:56:15;;;;;;;0.40;0.40;;;11.60;99.90;;;;;;5113492;28;20072;-81
2024/02/03 12:58:42;;;;;;;0.52;0.52;;;11.60;99.90;;;;;;5116131;28;20047;-82